createdAt,value
2023-03-02T00:01:08.569Z,82.31
2023-03-02T00:03:43.262Z,82.68
2023-03-02T00:06:15.457Z,83.89
2023-03-02T00:08:48.415Z,83.61
2023-03-02T00:11:19.983Z,84.24
2023-03-02T00:13:51.980Z,83.81
2023-03-02T00:16:26.327Z,85.00
2023-03-02T00:18:58.918Z,84.01
2023-03-02T00:21:31.973Z,84.86
2023-03-02T00:24:04.095Z,84.49
2023-03-02T00:26:37.418Z,83.68
2023-03-02T00:29:09.457Z,84.79
2023-03-02T00:31:43.851Z,84.25
2023-03-02T00:34:17.136Z,84.11
2023-03-02T00:36:49.771Z,83.85
2023-03-02T00:39:21.992Z,86.17
2023-03-02T00:41:53.959Z,85.55
2023-03-02T00:44:26.158Z,84.37
2023-03-02T00:47:00.724Z,84.39
2023-03-02T00:49:33.194Z,84.69
2023-03-02T00:52:05.133Z,84.16
2023-03-02T00:55:15.931Z,83.73
2023-03-02T00:58:12.453Z,84.08
2023-03-02T01:00:53.433Z,84.00
2023-03-02T01:03:28.353Z,83.51
2023-03-02T01:06:01.061Z,83.84
2023-03-02T01:08:33.173Z,83.99
2023-03-02T01:11:05.516Z,84.29
2023-03-02T01:13:37.338Z,83.54
2023-03-02T01:16:10.431Z,84.44
2023-03-02T01:18:45.102Z,85.94
2023-03-02T01:21:19.334Z,85.22
2023-03-02T01:23:51.986Z,84.64
2023-03-02T01:26:24.214Z,84.79
2023-03-02T01:28:56.609Z,84.32
2023-03-02T01:31:30.168Z,84.32
2023-03-02T01:34:04.821Z,84.34
2023-03-02T01:36:37.364Z,84.50
2023-03-02T01:39:09.278Z,84.98
2023-03-02T01:41:41.671Z,85.30
2023-03-02T01:44:42.523Z,85.33
2023-03-02T01:47:19.419Z,85.39
2023-03-02T01:49:59.838Z,85.44
2023-03-02T01:52:35.092Z,85.83
2023-03-02T01:55:12.601Z,85.67
2023-03-02T01:57:49.864Z,86.52
2023-03-02T02:00:25.854Z,86.60
2023-03-02T02:03:09.699Z,87.45
2023-03-02T02:05:47.641Z,87.61
2023-03-02T02:08:20.119Z,86.96
2023-03-02T02:10:52.338Z,87.12
2023-03-02T02:13:24.742Z,88.87
2023-03-02T02:15:56.960Z,88.76
2023-03-02T02:18:29.915Z,88.19
2023-03-02T02:21:05.298Z,87.75
2023-03-02T02:23:43.524Z,88.78
2023-03-02T02:26:35.528Z,89.50
2023-03-02T02:29:14.837Z,90.17
2023-03-02T02:31:54.569Z,90.41
2023-03-02T02:34:35.835Z,90.73
2023-03-02T02:37:22.967Z,90.69
2023-03-02T02:40:58.042Z,90.09
2023-03-02T02:44:46.337Z,90.85
2023-03-02T02:47:24.214Z,90.96
2023-03-02T02:49:58.323Z,91.57
2023-03-02T02:52:32.194Z,91.63
2023-03-02T02:55:04.345Z,91.84
2023-03-02T02:57:36.122Z,91.66
2023-03-02T03:00:12.490Z,91.76
2023-03-02T03:02:48.554Z,92.57
2023-03-02T03:05:20.951Z,93.00
2023-03-02T03:07:53.452Z,93.01
2023-03-02T03:10:35.257Z,92.39
2023-03-02T03:13:06.854Z,92.42
2023-03-02T03:15:39.484Z,94.29
2023-03-02T03:18:13.768Z,95.45
2023-03-02T03:20:49.831Z,96.06
2023-03-02T03:23:22.124Z,94.32
2023-03-02T03:25:53.714Z,94.10
2023-03-02T03:28:24.885Z,94.02
2023-03-02T03:30:56.662Z,95.06
2023-03-02T03:33:33.464Z,95.04
2023-03-02T03:36:05.109Z,94.07
2023-03-02T03:38:36.786Z,96.02
2023-03-02T03:41:08.982Z,96.56
2023-03-02T03:43:41.814Z,97.52
2023-03-02T03:46:14.149Z,97.26
2023-03-02T03:48:48.068Z,97.19
2023-03-02T03:51:22.672Z,97.48
2023-03-02T03:54:00.473Z,97.92
2023-03-02T03:56:34.212Z,98.50
2023-03-02T03:59:10.820Z,97.92
2023-03-02T04:01:46.765Z,96.46
2023-03-02T04:04:23.914Z,97.82
2023-03-02T04:06:57.540Z,97.91
2023-03-02T04:09:32.298Z,97.93
2023-03-02T04:12:03.938Z,97.81
2023-03-02T04:14:35.519Z,97.59
2023-03-02T04:17:08.030Z,97.61
2023-03-02T04:19:45.912Z,98.20
2023-03-02T04:22:20.285Z,98.65
2023-03-02T04:24:52.488Z,98.04
2023-03-02T04:27:25.445Z,98.10
2023-03-02T04:29:57.368Z,97.81
2023-03-02T04:32:29.297Z,97.90
2023-03-02T04:35:02.832Z,98.73
2023-03-02T04:37:34.250Z,99.75
2023-03-02T04:40:09.163Z,98.84
2023-03-02T04:42:40.804Z,98.41
2023-03-02T04:45:15.721Z,97.69
2023-03-02T04:47:47.184Z,98.59
2023-03-02T04:50:20.914Z,98.44
2023-03-02T04:52:53.959Z,98.40
2023-03-02T04:55:28.876Z,99.44
2023-03-02T04:58:00.875Z,100.00
2023-03-02T05:00:35.519Z,100.00
2023-03-02T05:03:08.020Z,99.02
2023-03-02T05:05:42.575Z,99.44
2023-03-02T05:08:15.116Z,99.62
2023-03-02T05:10:46.676Z,100.00
2023-03-02T05:13:18.755Z,99.59
2023-03-02T05:15:51.930Z,100.00
2023-03-02T05:18:24.415Z,100.00
2023-03-02T05:20:58.848Z,100.00
2023-03-02T05:23:31.854Z,100.00
2023-03-02T05:26:03.356Z,100.00
2023-03-02T05:28:35.438Z,100.00
2023-03-02T05:31:07.452Z,100.00
2023-03-02T05:33:38.881Z,100.00
2023-03-02T05:36:12.550Z,100.00
2023-03-02T05:38:44.309Z,100.00
2023-03-02T05:41:15.253Z,100.00
2023-03-02T05:43:46.685Z,100.00
2023-03-02T05:46:18.169Z,100.00
2023-03-02T05:48:50.053Z,100.00
2023-03-02T05:51:23.639Z,100.00
2023-03-02T05:53:54.996Z,100.00
2023-03-02T05:56:25.923Z,100.00
2023-03-02T05:58:57.271Z,100.00
2023-03-02T06:01:28.120Z,100.00
2023-03-02T06:03:59.919Z,100.00
2023-03-02T06:06:34.196Z,100.00
2023-03-02T06:09:05.917Z,100.00
2023-03-02T06:11:36.793Z,100.00
2023-03-02T06:14:08.356Z,100.00
2023-03-02T06:16:39.295Z,100.00
2023-03-02T06:19:10.919Z,100.00
2023-03-02T06:21:44.413Z,100.00
2023-03-02T06:24:15.886Z,100.00
2023-03-02T06:26:47.144Z,100.00
2023-03-02T06:29:18.423Z,100.00
2023-03-02T06:31:49.766Z,100.00
2023-03-02T06:34:21.395Z,100.00
2023-03-02T06:36:55.315Z,100.00
2023-03-02T06:39:27.063Z,100.00
2023-03-02T06:41:59.492Z,100.00
2023-03-02T06:44:31.102Z,100.00
2023-03-02T06:47:02.473Z,100.00
2023-03-02T06:49:34.155Z,100.00
2023-03-02T06:52:08.231Z,100.00
2023-03-02T06:54:40.117Z,100.00
2023-03-02T06:57:11.581Z,100.00
2023-03-02T06:59:43.119Z,100.00
2023-03-02T07:02:14.952Z,100.00
2023-03-02T07:04:46.618Z,100.00
2023-03-02T07:07:20.232Z,100.00
2023-03-02T07:09:51.580Z,100.00
2023-03-02T07:12:22.447Z,100.00
2023-03-02T07:14:53.870Z,100.00
2023-03-02T07:17:24.649Z,100.00
2023-03-02T07:19:55.903Z,100.00
2023-03-02T07:22:29.576Z,100.00
2023-03-02T07:25:00.912Z,100.00
2023-03-02T07:27:31.937Z,100.00
2023-03-02T07:30:03.429Z,100.00
2023-03-02T07:32:34.641Z,100.00
2023-03-02T07:35:06.197Z,100.00
2023-03-02T07:37:39.789Z,100.00
2023-03-02T07:40:13.571Z,100.00
2023-03-02T07:42:44.459Z,100.00
2023-03-02T07:45:16.952Z,100.00
2023-03-02T07:47:47.977Z,100.00
2023-03-02T07:50:19.955Z,100.00
2023-03-02T07:52:53.597Z,100.00
2023-03-02T07:55:24.916Z,100.00
2023-03-02T07:57:55.962Z,99.67
2023-03-02T08:00:27.887Z,99.14
2023-03-02T08:02:58.938Z,100.00
2023-03-02T08:05:30.528Z,100.00
2023-03-02T08:08:04.179Z,99.45
2023-03-02T08:10:37.216Z,98.89
2023-03-02T08:13:10.320Z,98.84
2023-03-02T08:15:41.731Z,100.00
2023-03-02T08:18:15.091Z,98.21
2023-03-02T08:20:46.332Z,97.34
2023-03-02T08:23:19.869Z,96.59
2023-03-02T08:25:51.376Z,96.60
2023-03-02T08:28:23.061Z,96.76
2023-03-02T08:31:00.756Z,96.86
2023-03-02T08:33:33.186Z,96.28
2023-03-02T08:36:07.718Z,96.02
2023-03-02T08:38:41.794Z,94.82
2023-03-02T08:41:15.524Z,94.01
2023-03-02T08:43:46.869Z,93.71
2023-03-02T08:46:20.154Z,93.67
2023-03-02T08:48:52.764Z,94.45
2023-03-02T08:51:27.375Z,93.57
2023-03-02T08:54:00.878Z,93.10
2023-03-02T08:56:34.206Z,92.54
2023-03-02T08:59:08.053Z,90.92
2023-03-02T09:01:40.780Z,91.87
2023-03-02T09:04:13.586Z,89.93
2023-03-02T09:06:47.701Z,91.67
2023-03-02T09:09:21.468Z,93.13
2023-03-02T09:11:52.997Z,91.95
2023-03-02T09:14:27.403Z,91.63
2023-03-02T09:16:59.034Z,90.79
2023-03-02T09:19:30.333Z,90.00
2023-03-02T09:22:01.785Z,88.16
2023-03-02T09:24:35.974Z,87.39
2023-03-02T09:27:08.250Z,83.92
2023-03-02T09:29:39.526Z,83.41
2023-03-02T09:32:12.142Z,84.23
2023-03-02T09:34:43.544Z,79.48
2023-03-02T09:37:16.369Z,78.42
2023-03-02T09:39:50.242Z,77.08
2023-03-02T09:42:45.730Z,73.91
2023-03-02T09:45:28.444Z,74.46
2023-03-02T09:48:14.112Z,69.93
2023-03-02T13:37:46.992Z,74.36
2023-03-02T13:40:40.790Z,74.71
2023-03-02T13:43:36.900Z,75.20
2023-03-02T13:46:27.907Z,75.73
2023-03-02T21:31:59.654Z,100.00
2023-03-02T21:34:32.917Z,100.00
2023-03-02T21:37:04.785Z,100.00
2023-03-02T21:39:37.542Z,100.00
2023-03-02T21:42:09.732Z,100.00
2023-03-02T21:44:42.057Z,100.00
2023-03-02T21:47:16.798Z,100.00
2023-03-02T21:49:48.806Z,100.00
2023-03-02T21:52:20.526Z,100.00
2023-03-02T21:54:52.863Z,100.00
2023-03-02T21:57:24.848Z,100.00
2023-03-02T21:59:57.788Z,100.00
2023-03-02T22:02:32.368Z,100.00
2023-03-02T22:05:04.856Z,100.00
2023-03-02T22:07:36.884Z,100.00
2023-03-02T22:10:11.219Z,100.00
2023-03-02T22:12:45.132Z,100.00
2023-03-02T22:15:21.550Z,100.00
2023-03-02T22:17:57.090Z,100.00
2023-03-02T22:20:29.942Z,100.00
2023-03-02T22:23:02.794Z,100.00
2023-03-02T22:25:35.106Z,100.00
2023-03-02T22:28:16.562Z,100.00
2023-03-02T22:30:48.811Z,100.00
2023-03-02T22:33:26.123Z,100.00
2023-03-02T22:36:05.164Z,100.00
2023-03-02T22:38:37.090Z,100.00
2023-03-02T22:41:13.533Z,100.00
2023-03-02T22:43:46.107Z,100.00
2023-03-02T22:46:22.065Z,100.00
2023-03-02T22:48:57.593Z,100.00
2023-03-02T22:51:33.209Z,100.00
2023-03-02T22:54:05.660Z,100.00
2023-03-02T22:59:51.725Z,100.00
2023-03-02T23:02:26.365Z,100.00
2023-03-02T23:05:03.533Z,100.00
2023-03-02T23:07:35.462Z,100.00
2023-03-02T23:10:07.630Z,100.00
2023-03-02T23:12:39.579Z,100.00
2023-03-02T23:15:20.269Z,100.00
2023-03-02T23:17:52.812Z,100.00
2023-03-02T23:20:30.037Z,100.00
2023-03-02T23:23:01.737Z,100.00
2023-03-02T23:25:45.370Z,100.00
2023-03-02T23:28:18.104Z,100.00
2023-03-02T23:30:50.517Z,100.00
2023-03-02T23:33:22.833Z,100.00
2023-03-02T23:35:57.887Z,100.00
2023-03-02T23:38:30.627Z,100.00
2023-03-02T23:41:02.703Z,100.00
2023-03-02T23:43:49.346Z,100.00
2023-03-02T23:46:24.645Z,100.00
2023-03-02T23:48:56.536Z,100.00
2023-03-02T23:51:31.604Z,100.00
2023-03-02T23:54:04.758Z,100.00
2023-03-02T23:56:37.134Z,100.00
2023-03-02T23:59:09.375Z,100.00
